Time;durP1;ratioP1;P1;durP2;ratioP2;P2;SDS_P1;SDS_P2;PMS_P1;PMS_P2;Temp;Humidity;BMP_temperature;BMP_pressure;BME280_temperature;BME280_humidity;BME280_pressure;Samples;Min_cycle;Max_cycle;Signal;HPM_P1;HPM_P2
2023/08/16 00:02:14;;;;;;;4.13;3.43;;;23.10;99.90;;;;;;5034699;28;20611;-71
2023/08/16 00:04:41;;;;;;;4.10;3.80;;;23.10;99.90;;;;;;5033965;28;20171;-71
2023/08/16 00:07:07;;;;;;;4.90;4.50;;;22.90;99.90;;;;;;5035108;28;20434;-71
2023/08/16 00:09:33;;;;;;;4.47;4.13;;;22.90;99.90;;;;;;5035187;28;20849;-70
2023/08/16 00:11:58;;;;;;;4.37;3.77;;;22.90;99.90;;;;;;5034839;28;20227;-71
2023/08/16 00:14:24;;;;;;;4.73;3.60;;;23.00;99.90;;;;;;5034381;28;20186;-70
2023/08/16 00:16:49;;;;;;;4.53;4.03;;;23.10;99.90;;;;;;5034335;28;20198;-70
2023/08/16 00:19:15;;;;;;;3.87;3.50;;;23.30;99.90;;;;;;5034914;28;20562;-71
2023/08/16 00:21:41;;;;;;;10.27;4.30;;;23.40;99.90;;;;;;5034684;28;20195;-71
2023/08/16 00:24:07;;;;;;;4.90;4.10;;;23.30;99.90;;;;;;5034750;28;20170;-71
2023/08/16 00:26:32;;;;;;;4.10;3.70;;;23.40;99.90;;;;;;5035170;28;20171;-70
2023/08/16 00:28:59;;;;;;;4.07;3.77;;;23.40;99.90;;;;;;5034805;28;20398;-72
2023/08/16 00:31:25;;;;;;;3.43;3.13;;;23.40;99.90;;;;;;5034439;28;20199;-71
2023/08/16 00:33:50;;;;;;;4.17;3.77;;;23.30;99.90;;;;;;5034583;28;20854;-71
2023/08/16 00:36:16;;;;;;;4.20;3.70;;;23.20;99.90;;;;;;5034739;28;20564;-71
2023/08/16 00:38:44;;;;;;;5.00;4.30;;;23.30;99.90;;;;;;5034302;28;20540;-71
2023/08/16 00:41:13;;;;;;;4.43;4.07;;;23.30;99.90;;;;;;5034373;28;20244;-71
2023/08/16 00:43:39;;;;;;;4.33;3.93;;;23.20;99.90;;;;;;5034718;28;20862;-71
2023/08/16 00:46:07;;;;;;;5.90;4.27;;;23.40;99.90;;;;;;5034300;28;20454;-71
2023/08/16 00:48:36;;;;;;;5.27;4.23;;;23.50;99.90;;;;;;5034839;28;20493;-71
2023/08/16 00:51:03;;;;;;;7.00;4.77;;;23.50;99.90;;;;;;5034757;28;20425;-71
2023/08/16 00:53:31;;;;;;;4.23;3.83;;;23.60;99.90;;;;;;5033929;28;20426;-70
2023/08/16 00:55:57;;;;;;;4.93;4.43;;;23.60;99.90;;;;;;5034611;28;20951;-70
2023/08/16 00:58:23;;;;;;;7.43;4.63;;;23.60;99.90;;;;;;5034322;28;20402;-70
2023/08/16 01:00:49;;;;;;;5.27;4.43;;;23.50;99.90;;;;;;5033997;28;20514;-70
2023/08/16 01:03:15;;;;;;;4.43;4.03;;;23.10;99.90;;;;;;5034255;28;20445;-71
2023/08/16 01:05:40;;;;;;;5.90;4.90;;;23.00;99.90;;;;;;5034070;28;20728;-70
2023/08/16 01:08:06;;;;;;;6.03;4.07;;;23.10;99.90;;;;;;5033673;28;20167;-70
2023/08/16 01:10:43;;;;;;;4.93;3.93;;;23.10;99.90;;;;;;5033932;28;20620;-70
2023/08/16 01:13:41;;;;;;;4.47;4.07;;;23.20;99.90;;;;;;5033930;28;20397;-70
2023/08/16 01:16:09;;;;;;;4.53;4.13;;;23.10;99.90;;;;;;5032277;28;20525;-70
2023/08/16 01:18:37;;;;;;;5.10;4.60;;;23.00;99.90;;;;;;5033517;28;20418;-71
2023/08/16 01:21:07;;;;;;;4.40;4.07;;;23.00;99.90;;;;;;5033640;28;20446;-70
2023/08/16 01:24:03;;;;;;;5.07;4.57;;;22.90;99.90;;;;;;5033282;28;20409;-71
2023/08/16 01:26:29;;;;;;;4.30;3.90;;;23.00;99.90;;;;;;5033774;28;20407;-70
2023/08/16 01:28:56;;;;;;;4.90;4.37;;;23.00;99.90;;;;;;5033669;28;20432;-70
2023/08/16 01:31:22;;;;;;;5.37;4.67;;;22.90;99.90;;;;;;5033358;28;20444;-70
2023/08/16 01:33:48;;;;;;;5.33;4.83;;;22.80;99.90;;;;;;5033527;28;20411;-70
2023/08/16 01:36:13;;;;;;;5.20;4.70;;;22.80;99.90;;;;;;5033434;28;20179;-70
2023/08/16 01:38:39;;;;;;;7.17;4.70;;;22.70;99.90;;;;;;5033250;28;20167;-70
2023/08/16 01:41:35;;;;;;;5.57;4.90;;;22.60;99.90;;;;;;5032926;28;20195;-70
2023/08/16 01:44:01;;;;;;;4.60;4.20;;;22.60;99.90;;;;;;5033210;28;20402;-70
2023/08/16 01:46:28;;;;;;;5.20;4.73;;;22.40;99.90;;;;;;5033055;28;20417;-70
2023/08/16 01:48:55;;;;;;;5.30;4.90;;;22.40;99.90;;;;;;5033393;28;20406;-70
2023/08/16 01:51:21;;;;;;;5.57;4.43;;;22.30;99.90;;;;;;5033027;28;20975;-70
2023/08/16 01:53:52;;;;;;;5.80;5.30;;;22.30;99.90;;;;;;5032834;28;20410;-70
2023/08/16 01:56:18;;;;;;;5.53;5.03;;;22.30;99.90;;;;;;5032478;28;20446;-71
2023/08/16 01:58:44;;;;;;;6.07;4.87;;;22.30;99.90;;;;;;5033288;28;20652;-70
2023/08/16 02:01:09;;;;;;;5.50;5.00;;;22.30;99.90;;;;;;5033146;28;20274;-71
2023/08/16 02:03:35;;;;;;;8.80;5.63;;;22.30;99.90;;;;;;5033115;28;20179;-71
2023/08/16 02:06:00;;;;;;;5.30;4.80;;;22.10;99.90;;;;;;5033626;28;20171;-70
2023/08/16 02:08:26;;;;;;;5.00;4.50;;;22.10;99.90;;;;;;5031671;28;20266;-70
2023/08/16 02:10:51;;;;;;;4.97;4.57;;;22.10;99.90;;;;;;5033006;28;20199;-70
2023/08/16 02:13:17;;;;;;;4.97;4.10;;;22.10;99.90;;;;;;5031682;28;20211;-70
2023/08/16 02:15:42;;;;;;;5.30;4.80;;;22.10;99.90;;;;;;5032583;28;20218;-69
2023/08/16 02:18:10;;;;;;;5.00;4.60;;;22.10;99.90;;;;;;5033003;28;20528;-70
2023/08/16 02:20:38;;;;;;;5.47;4.97;;;22.00;99.90;;;;;;5031923;28;20211;-69
2023/08/16 02:23:05;;;;;;;5.30;4.80;;;21.80;99.90;;;;;;5032404;28;20413;-69
2023/08/16 02:25:30;;;;;;;5.97;5.20;;;21.80;99.90;;;;;;5032701;28;20766;-70
2023/08/16 02:27:56;;;;;;;4.80;4.40;;;21.90;99.90;;;;;;5032854;28;20428;-70
2023/08/16 02:30:21;;;;;;;4.30;4.00;;;22.00;99.90;;;;;;5031085;28;20206;-70
2023/08/16 02:32:47;;;;;;;6.23;4.77;;;21.90;99.90;;;;;;5032623;28;20179;-70
2023/08/16 02:35:13;;;;;;;5.50;4.80;;;21.90;99.90;;;;;;5032569;28;20776;-70
2023/08/16 02:37:38;;;;;;;4.90;4.50;;;21.90;99.90;;;;;;5031861;28;20167;-70
2023/08/16 02:40:05;;;;;;;5.80;5.30;;;21.80;99.90;;;;;;5032628;28;20195;-70
2023/08/16 02:42:30;;;;;;;5.37;4.93;;;21.80;99.90;;;;;;5032750;28;20171;-70
2023/08/16 02:44:56;;;;;;;6.47;5.97;;;21.80;99.90;;;;;;5032293;28;20765;-70
2023/08/16 02:47:21;;;;;;;5.27;4.80;;;21.70;99.90;;;;;;5032738;28;20549;-71
2023/08/16 02:49:47;;;;;;;5.87;5.37;;;21.80;99.90;;;;;;5032467;28;20210;-70
2023/08/16 02:52:12;;;;;;;5.23;4.73;;;21.80;99.90;;;;;;5032400;28;20301;-70
2023/08/16 02:54:38;;;;;;;5.30;4.80;;;21.90;99.90;;;;;;5032224;28;20174;-71
2023/08/16 02:57:04;;;;;;;5.50;5.00;;;21.80;99.90;;;;;;5032706;28;20688;-71
2023/08/16 02:59:39;;;;;;;5.20;4.80;;;21.80;99.90;;;;;;5032660;28;20904;-72
2023/08/16 03:02:05;;;;;;;4.80;4.30;;;21.70;99.90;;;;;;5032384;28;20318;-71
2023/08/16 03:04:30;;;;;;;5.40;4.90;;;21.80;99.90;;;;;;5032435;28;20410;-71
2023/08/16 03:06:56;;;;;;;6.50;5.10;;;21.80;99.90;;;;;;5032517;28;20208;-71
2023/08/16 03:09:22;;;;;;;4.93;4.10;;;21.80;99.90;;;;;;5032250;28;20224;-72
2023/08/16 03:11:49;;;;;;;4.97;4.57;;;21.80;99.90;;;;;;5031201;28;20199;-71
2023/08/16 03:14:15;;;;;;;5.93;5.43;;;21.80;99.90;;;;;;5032693;28;20183;-71
2023/08/16 03:16:41;;;;;;;4.80;4.40;;;21.70;99.90;;;;;;5032426;28;20471;-71
2023/08/16 03:19:06;;;;;;;6.13;5.53;;;21.70;99.90;;;;;;5032611;28;20412;-71
2023/08/16 03:21:34;;;;;;;5.07;4.57;;;21.80;99.90;;;;;;5032271;28;20727;-71
2023/08/16 03:24:00;;;;;;;4.80;4.37;;;21.80;99.90;;;;;;5032418;28;20265;-71
2023/08/16 03:26:25;;;;;;;6.00;5.27;;;21.80;99.90;;;;;;5032471;28;20402;-71
2023/08/16 03:28:51;;;;;;;4.50;4.10;;;21.80;99.90;;;;;;5032480;28;20202;-71
2023/08/16 03:31:17;;;;;;;6.30;4.67;;;21.70;99.90;;;;;;5032324;28;20222;-71
2023/08/16 03:33:43;;;;;;;5.53;4.93;;;21.60;99.90;;;;;;5032733;28;20198;-71
2023/08/16 03:36:08;;;;;;;4.80;4.27;;;21.60;99.90;;;;;;5032194;28;20441;-71
2023/08/16 03:38:34;;;;;;;5.30;4.80;;;21.80;99.90;;;;;;5032661;28;20207;-71
2023/08/16 03:41:00;;;;;;;4.93;4.33;;;21.70;99.90;;;;;;5032762;28;20199;-71
2023/08/16 03:43:25;;;;;;;4.83;4.37;;;21.70;99.90;;;;;;5032633;28;20171;-72
2023/08/16 03:45:51;;;;;;;5.23;4.70;;;21.70;99.90;;;;;;5032943;28;20229;-72
2023/08/16 03:48:16;;;;;;;4.87;4.47;;;21.70;99.90;;;;;;5033671;28;20681;-72
2023/08/16 03:50:42;;;;;;;4.83;4.43;;;21.60;99.90;;;;;;5034378;28;20570;-72
2023/08/16 03:53:08;;;;;;;6.20;4.60;;;21.60;99.90;;;;;;5036321;28;20608;-71
2023/08/16 03:55:33;;;;;;;9.07;5.50;;;21.60;99.90;;;;;;5036270;28;20545;-72
2023/08/16 03:57:59;;;;;;;5.23;4.80;;;21.60;99.90;;;;;;5036656;28;20348;-72
2023/08/16 04:00:24;;;;;;;5.00;4.60;;;21.70;99.90;;;;;;5035528;28;20223;-72
2023/08/16 04:02:50;;;;;;;5.03;4.50;;;21.70;99.90;;;;;;5043096;28;20168;-71
2023/08/16 04:05:15;;;;;;;4.83;4.43;;;21.70;99.90;;;;;;5043775;28;20537;-71
2023/08/16 04:07:41;;;;;;;5.10;4.70;;;21.70;99.90;;;;;;5041681;28;20198;-71
2023/08/16 04:10:07;;;;;;;6.10;5.10;;;21.70;99.90;;;;;;5045849;28;20203;-71
2023/08/16 04:12:33;;;;;;;10.13;4.90;;;21.50;99.90;;;;;;5050502;28;20175;-71
2023/08/16 04:14:58;;;;;;;5.30;4.90;;;21.60;99.90;;;;;;5049829;28;20442;-72
2023/08/16 04:17:24;;;;;;;6.70;5.80;;;21.50;99.90;;;;;;5050316;28;20167;-72
2023/08/16 04:19:50;;;;;;;7.23;5.90;;;21.50;99.90;;;;;;5051969;28;20178;-71
2023/08/16 04:22:15;;;;;;;5.33;4.93;;;21.50;99.90;;;;;;5048770;28;20171;-70
2023/08/16 04:24:41;;;;;;;6.30;4.47;;;21.60;99.90;;;;;;5048320;28;20202;-70
2023/08/16 04:27:07;;;;;;;4.77;4.37;;;21.50;99.90;;;;;;5048807;28;20163;-71
2023/08/16 04:29:33;;;;;;;6.33;5.83;;;21.50;99.90;;;;;;5048963;28;20178;-71
2023/08/16 04:31:58;;;;;;;7.03;5.00;;;21.50;99.90;;;;;;5047919;28;20194;-71
2023/08/16 04:34:24;;;;;;;5.70;5.20;;;21.40;99.90;;;;;;5034944;28;20171;-70
2023/08/16 04:36:49;;;;;;;6.30;5.70;;;21.30;99.90;;;;;;5034762;28;20234;-69
2023/08/16 04:39:15;;;;;;;6.60;6.00;;;21.30;99.90;;;;;;5034573;28;20171;-71
2023/08/16 04:41:40;;;;;;;5.63;5.10;;;21.40;99.90;;;;;;5034724;28;20194;-70
2023/08/16 04:44:06;;;;;;;6.70;6.10;;;21.40;99.90;;;;;;5034624;28;20175;-71
2023/08/16 04:46:32;;;;;;;7.27;5.07;;;21.30;99.90;;;;;;5034540;28;20267;-71
2023/08/16 04:48:57;;;;;;;5.70;5.10;;;21.20;99.90;;;;;;5034568;28;20179;-72
2023/08/16 04:51:23;;;;;;;6.50;5.90;;;21.20;99.90;;;;;;5035176;28;20206;-70
2023/08/16 04:53:48;;;;;;;5.60;5.10;;;21.20;99.90;;;;;;5034152;28;20182;-70
2023/08/16 04:56:14;;;;;;;4.47;4.17;;;21.20;99.90;;;;;;5034466;28;20653;-71
2023/08/16 04:58:39;;;;;;;5.37;4.87;;;21.30;99.90;;;;;;5034613;28;20195;-70
2023/08/16 05:01:05;;;;;;;5.27;4.83;;;21.30;99.90;;;;;;5033620;28;20704;-71
2023/08/16 05:03:31;;;;;;;5.30;4.90;;;21.20;99.90;;;;;;5034704;28;20172;-71
2023/08/16 05:06:01;;;;;;;6.13;5.17;;;21.10;99.90;;;;;;5034306;28;20232;-71
2023/08/16 05:08:27;;;;;;;5.37;4.87;;;21.20;99.90;;;;;;5034203;28;20158;-71
2023/08/16 05:10:52;;;;;;;5.10;4.70;;;21.30;99.90;;;;;;5034308;28;20434;-71
2023/08/16 05:13:18;;;;;;;5.00;4.70;;;21.30;99.90;;;;;;5034414;28;20167;-71
2023/08/16 05:15:44;;;;;;;5.53;4.70;;;21.40;99.90;;;;;;5034149;28;20515;-72
2023/08/16 05:18:11;;;;;;;5.27;4.87;;;21.40;99.90;;;;;;5034280;28;20167;-71
2023/08/16 05:20:37;;;;;;;7.13;4.67;;;21.50;99.90;;;;;;5033644;28;20465;-71
2023/08/16 05:23:03;;;;;;;6.10;5.50;;;21.50;99.90;;;;;;5033610;28;20398;-72
2023/08/16 05:25:29;;;;;;;6.77;6.13;;;21.50;99.90;;;;;;5033986;28;20444;-72
2023/08/16 05:27:58;;;;;;;6.83;6.23;;;21.50;99.90;;;;;;5033783;28;20174;-72
2023/08/16 05:30:25;;;;;;;6.77;6.17;;;21.50;99.90;;;;;;5033527;28;20191;-70
2023/08/16 05:32:52;;;;;;;7.80;7.00;;;21.40;99.90;;;;;;5032473;28;20406;-71
2023/08/16 05:35:17;;;;;;;7.73;6.70;;;21.40;99.90;;;;;;5033141;28;20472;-71
2023/08/16 05:37:43;;;;;;;8.83;7.93;;;21.40;99.90;;;;;;5033435;28;20407;-71
2023/08/16 05:40:09;;;;;;;7.80;7.00;;;21.40;99.90;;;;;;5032964;28;20195;-70
2023/08/16 05:42:35;;;;;;;9.07;7.20;;;21.60;99.90;;;;;;5033599;28;20250;-74
2023/08/16 05:45:00;;;;;;;8.30;7.50;;;21.80;99.90;;;;;;5033664;28;20442;-70
2023/08/16 05:47:26;;;;;;;9.43;6.93;;;21.90;99.90;;;;;;5033263;28;20177;-71
2023/08/16 05:49:51;;;;;;;7.67;6.70;;;22.00;99.90;;;;;;5033469;28;20195;-71
2023/08/16 05:52:17;;;;;;;6.50;6.00;;;22.20;99.90;;;;;;5031901;28;20653;-70
2023/08/16 05:54:42;;;;;;;5.63;5.23;;;22.50;99.90;;;;;;5032282;28;20175;-71
2023/08/16 05:57:08;;;;;;;7.33;6.23;;;22.80;99.90;;;;;;5033267;28;20190;-71
2023/08/16 05:59:33;;;;;;;5.87;5.37;;;23.10;99.90;;;;;;5032020;28;20171;-70
2023/08/16 06:01:59;;;;;;;7.33;5.17;;;23.20;99.90;;;;;;5032729;28;20561;-70
2023/08/16 06:04:25;;;;;;;5.20;4.80;;;23.30;99.90;;;;;;5031682;28;20163;-70
2023/08/16 06:06:51;;;;;;;5.70;5.20;;;23.50;99.90;;;;;;5033540;28;20163;-70
2023/08/16 06:09:16;;;;;;;5.40;4.90;;;23.70;99.90;;;;;;5032605;28;20463;-70
2023/08/16 06:11:42;;;;;;;5.00;4.43;;;23.90;99.90;;;;;;5032871;28;20223;-70
2023/08/16 06:14:07;;;;;;;4.73;4.33;;;24.10;99.90;;;;;;5032053;28;20179;-71
2023/08/16 06:16:33;;;;;;;5.93;4.37;;;24.20;99.90;;;;;;5032882;28;20195;-72
2023/08/16 06:18:58;;;;;;;5.20;4.70;;;24.50;99.90;;;;;;5032955;28;20202;-71
2023/08/16 06:21:24;;;;;;;4.90;4.40;;;24.80;99.90;;;;;;5032785;28;20207;-70
2023/08/16 06:23:51;;;;;;;6.53;4.90;;;24.80;99.90;;;;;;5032910;28;20246;-71
2023/08/16 06:26:17;;;;;;;5.23;4.73;;;24.80;99.90;;;;;;5033558;28;20170;-73
2023/08/16 06:28:42;;;;;;;7.20;4.90;;;24.70;99.90;;;;;;5032970;28;20934;-71
2023/08/16 06:31:08;;;;;;;5.53;5.03;;;24.80;99.90;;;;;;5032608;28;20509;-70
2023/08/16 06:33:33;;;;;;;4.67;4.27;;;24.80;99.90;;;;;;5033009;28;20183;-71
2023/08/16 06:35:59;;;;;;;5.10;4.60;;;24.80;99.90;;;;;;5032599;28;20187;-71
2023/08/16 06:38:25;;;;;;;5.13;4.53;;;25.00;99.90;;;;;;5032098;28;20171;-71
2023/08/16 06:40:50;;;;;;;4.40;4.00;;;25.00;99.90;;;;;;5032302;28;20187;-70
2023/08/16 06:43:16;;;;;;;6.30;5.67;;;24.90;99.90;;;;;;5032263;28;20175;-70
2023/08/16 06:45:42;;;;;;;6.83;6.20;;;24.50;99.90;;;;;;5031972;28;20175;-70
2023/08/16 06:48:07;;;;;;;7.93;6.27;;;24.30;99.90;;;;;;5032489;28;20171;-71
2023/08/16 06:50:33;;;;;;;5.80;5.20;;;24.20;99.90;;;;;;5032362;28;20184;-71
2023/08/16 06:52:58;;;;;;;8.43;6.00;;;24.20;99.90;;;;;;5032577;28;20207;-71
2023/08/16 06:55:24;;;;;;;6.50;5.90;;;24.10;99.90;;;;;;5035368;28;20553;-71
2023/08/16 06:57:50;;;;;;;6.37;5.70;;;24.10;99.90;;;;;;5032325;28;20611;-71
2023/08/16 07:00:17;;;;;;;6.17;5.60;;;24.20;99.90;;;;;;5032295;28;20240;-70
2023/08/16 07:02:43;;;;;;;7.50;5.90;;;24.20;99.90;;;;;;5032188;28;20402;-70
2023/08/16 07:05:12;;;;;;;6.40;5.80;;;24.20;99.90;;;;;;5031083;28;20429;-72
2023/08/16 07:07:37;;;;;;;6.07;5.47;;;24.50;99.90;;;;;;5032447;28;20940;-71
2023/08/16 07:10:04;;;;;;;10.37;6.47;;;24.50;99.90;;;;;;5032302;28;20461;-71
2023/08/16 07:12:30;;;;;;;9.83;6.17;;;24.50;99.90;;;;;;5032585;28;20171;-71
2023/08/16 07:14:55;;;;;;;8.30;6.30;;;24.30;99.90;;;;;;5031965;28;20442;-71
2023/08/16 07:17:21;;;;;;;7.00;6.37;;;24.30;99.90;;;;;;5030575;28;20167;-71
2023/08/16 07:19:48;;;;;;;7.43;6.60;;;24.20;99.90;;;;;;5031951;28;20170;-70
2023/08/16 07:22:14;;;;;;;7.33;6.60;;;24.40;99.90;;;;;;5032525;28;20171;-71
2023/08/16 07:24:40;;;;;;;7.03;6.13;;;24.40;99.90;;;;;;5033266;28;20410;-71
2023/08/16 07:27:05;;;;;;;7.70;7.10;;;24.50;99.90;;;;;;5035826;28;20406;-70
2023/08/16 07:29:31;;;;;;;8.10;7.40;;;24.60;99.90;;;;;;5035655;28;20179;-70
2023/08/16 07:31:56;;;;;;;7.40;6.33;;;24.60;99.90;;;;;;5035559;28;20274;-71
2023/08/16 07:34:22;;;;;;;7.43;6.73;;;24.80;99.90;;;;;;5035789;28;20175;-71
2023/08/16 07:36:48;;;;;;;6.60;6.00;;;24.80;99.90;;;;;;5035589;28;20188;-70
2023/08/16 07:39:13;;;;;;;6.13;5.63;;;24.70;99.90;;;;;;5035170;28;20179;-70
2023/08/16 07:41:39;;;;;;;7.07;6.47;;;24.70;99.90;;;;;;5035534;28;20230;-71
2023/08/16 07:44:05;;;;;;;8.23;6.50;;;24.80;99.90;;;;;;5035468;28;20172;-71
2023/08/16 07:46:30;;;;;;;7.20;6.30;;;25.00;99.90;;;;;;5035485;28;20680;-72
2023/08/16 07:48:58;;;;;;;6.30;5.70;;;25.00;99.90;;;;;;5035379;28;20194;-71
2023/08/16 07:51:23;;;;;;;6.67;6.07;;;25.00;99.90;;;;;;5035718;28;20311;-71
2023/08/16 07:53:49;;;;;;;6.77;6.27;;;25.10;99.90;;;;;;5035294;28;21107;-71
2023/08/16 07:56:14;;;;;;;7.07;5.97;;;25.10;99.90;;;;;;5035185;28;20213;-71
2023/08/16 07:58:40;;;;;;;6.67;6.10;;;25.10;99.90;;;;;;5033584;28;20171;-71
2023/08/16 08:01:05;;;;;;;7.47;6.77;;;25.30;99.90;;;;;;5035695;28;20191;-71
2023/08/16 08:03:31;;;;;;;6.80;6.10;;;25.50;99.90;;;;;;5035624;28;20178;-71
2023/08/16 08:06:01;;;;;;;7.83;7.10;;;25.40;99.90;;;;;;5033845;28;20201;-70
2023/08/16 08:08:27;;;;;;;7.33;6.73;;;25.40;99.90;;;;;;5034843;28;20243;-70
2023/08/16 08:10:52;;;;;;;6.80;6.10;;;25.30;99.90;;;;;;5034998;28;20491;-70
2023/08/16 08:13:18;;;;;;;6.20;5.70;;;25.20;99.90;;;;;;5035316;28;20172;-71
2023/08/16 08:15:43;;;;;;;9.00;7.07;;;25.30;99.90;;;;;;5034789;28;20665;-70
2023/08/16 08:18:09;;;;;;;7.40;6.80;;;25.40;99.90;;;;;;5034606;28;20163;-71
2023/08/16 08:20:36;;;;;;;9.60;6.00;;;25.60;99.90;;;;;;5056253;22;20878;-71
2023/08/16 08:23:02;;;;;;;7.70;6.90;;;25.60;99.90;;;;;;5035077;28;20244;-72
2023/08/16 08:25:29;;;;;;;6.90;6.30;;;25.80;99.90;;;;;;5034727;28;20439;-72
2023/08/16 08:27:55;;;;;;;6.97;6.40;;;25.90;99.90;;;;;;5035198;28;20495;-72
2023/08/16 08:30:21;;;;;;;6.83;6.00;;;26.00;99.90;;;;;;5035480;28;20422;-72
2023/08/16 08:32:47;;;;;;;7.20;6.53;;;25.90;99.90;;;;;;5016266;28;20238;-72
2023/08/16 08:35:12;;;;;;;7.07;6.47;;;25.90;99.90;;;;;;5015036;28;20708;-72
2023/08/16 08:37:38;;;;;;;8.30;6.47;;;25.80;99.90;;;;;;5014237;28;20186;-71
2023/08/16 08:40:05;;;;;;;7.50;6.43;;;26.00;99.90;;;;;;5014933;28;20547;-72
2023/08/16 08:42:31;;;;;;;8.93;6.40;;;26.00;99.90;;;;;;5031189;28;20229;-70
2023/08/16 08:44:59;;;;;;;7.20;6.43;;;26.00;99.90;;;;;;5034790;28;20405;-71
2023/08/16 08:47:24;;;;;;;8.67;7.73;;;26.00;99.90;;;;;;5034312;28;20448;-72
2023/08/16 08:49:51;;;;;;;8.00;7.20;;;26.00;99.90;;;;;;5034732;28;20406;-72
2023/08/16 08:52:18;;;;;;;8.53;7.13;;;26.00;99.90;;;;;;5020102;28;20204;-71
2023/08/16 08:54:44;;;;;;;7.47;6.77;;;26.00;99.90;;;;;;5014254;28;20404;-71
2023/08/16 08:57:11;;;;;;;8.23;7.50;;;26.20;99.90;;;;;;5014684;28;20452;-70
2023/08/16 08:59:39;;;;;;;5.87;5.37;;;26.30;99.90;;;;;;5014461;28;20418;-71
2023/08/16 09:02:05;;;;;;;7.00;6.30;;;26.60;99.90;;;;;;5026651;28;20460;-71
2023/08/16 09:04:33;;;;;;;7.83;7.10;;;26.90;99.90;;;;;;5034552;28;20954;-71
2023/08/16 09:07:04;;;;;;;9.00;7.40;;;26.80;99.90;;;;;;5034136;28;20453;-71
2023/08/16 09:09:30;;;;;;;7.67;6.93;;;27.00;99.90;;;;;;5034018;28;20469;-71
2023/08/16 09:11:56;;;;;;;7.17;6.50;;;27.30;99.90;;;;;;5026089;28;20576;-72
2023/08/16 09:14:22;;;;;;;7.77;6.43;;;27.50;99.90;;;;;;5034097;28;20202;-72
2023/08/16 09:16:47;;;;;;;9.53;6.67;;;27.30;99.90;;;;;;5033565;28;20972;-72
2023/08/16 09:19:14;;;;;;;8.13;6.30;;;27.30;99.90;;;;;;5034037;28;20168;-70
2023/08/16 09:21:41;;;;;;;13.63;6.60;;;27.50;99.90;;;;;;5031066;28;20705;-72
2023/08/16 09:24:06;;;;;;;6.17;5.50;;;27.60;99.90;;;;;;5033702;28;20487;-70
2023/08/16 09:26:32;;;;;;;7.50;6.30;;;27.50;99.90;;;;;;5034027;28;20493;-72
2023/08/16 09:28:58;;;;;;;9.50;7.00;;;27.80;99.90;;;;;;5033741;28;20270;-72
2023/08/16 09:31:31;;;;;;;6.90;6.30;;;28.00;99.90;;;;;;5026985;28;20207;-72
2023/08/16 09:34:01;;;;;;;9.50;7.33;;;28.20;99.90;;;;;;5015033;28;20391;-72
2023/08/16 09:36:30;;;;;;;7.23;5.93;;;28.30;99.90;;;;;;5014859;28;20455;-71
2023/08/16 09:39:08;;;;;;;6.63;6.00;;;28.50;99.90;;;;;;5026038;28;20413;-72
2023/08/16 09:41:34;;;;;;;5.80;5.30;;;28.70;99.90;;;;;;5017861;28;20435;-72
2023/08/16 09:44:07;;;;;;;6.73;6.03;;;28.70;99.90;;;;;;5013760;28;20932;-71
2023/08/16 09:46:34;;;;;;;6.77;6.20;;;29.00;99.90;;;;;;5013670;28;20187;-71
2023/08/16 09:49:07;;;;;;;6.43;5.83;;;28.70;99.90;;;;;;5028648;28;20452;-71
2023/08/16 09:51:37;;;;;;;7.97;6.30;;;28.70;99.90;;;;;;5033407;28;20414;-71
2023/08/16 09:54:09;;;;;;;7.47;6.73;;;28.50;99.90;;;;;;5032904;28;20489;-71
2023/08/16 09:56:35;;;;;;;7.23;6.13;;;28.70;99.90;;;;;;5033563;28;20799;-71
2023/08/16 09:59:01;;;;;;;7.13;6.40;;;28.70;99.90;;;;;;5016648;28;20827;-71
2023/08/16 10:01:27;;;;;;;7.43;6.70;;;28.60;99.90;;;;;;5012586;28;20438;-71
2023/08/16 10:03:55;;;;;;;8.40;6.30;;;28.90;99.90;;;;;;5013297;28;20167;-71
2023/08/16 10:06:25;;;;;;;8.20;7.50;;;28.80;99.90;;;;;;5013163;28;20165;-72
2023/08/16 10:08:52;;;;;;;6.77;6.20;;;28.70;99.90;;;;;;5027951;28;20547;-71
2023/08/16 10:11:18;;;;;;;7.47;6.60;;;28.70;99.90;;;;;;5019307;28;20941;-70
2023/08/16 10:13:45;;;;;;;7.30;6.60;;;28.90;99.90;;;;;;5013042;28;20498;-71
2023/08/16 10:16:14;;;;;;;7.67;6.97;;;29.10;99.90;;;;;;5013284;28;20490;-72
2023/08/16 10:18:42;;;;;;;7.23;5.87;;;29.30;99.90;;;;;;5025988;28;20484;-73
2023/08/16 10:21:11;;;;;;;7.33;6.30;;;29.30;99.90;;;;;;5032333;28;20446;-72
2023/08/16 10:23:40;;;;;;;8.70;7.07;;;29.50;99.90;;;;;;5032709;28;20410;-71
2023/08/16 10:26:12;;;;;;;6.67;6.07;;;29.30;99.90;;;;;;5032725;28;20414;-71
2023/08/16 10:28:40;;;;;;;7.03;6.33;;;29.00;99.90;;;;;;5019828;28;20403;-72
2023/08/16 10:31:07;;;;;;;7.20;6.60;;;29.60;99.90;;;;;;5012882;28;20435;-72
2023/08/16 10:33:37;;;;;;;7.83;7.00;;;29.70;99.90;;;;;;5012832;28;20869;-70
2023/08/16 10:36:04;;;;;;;7.20;6.20;;;29.70;99.90;;;;;;5013282;28;20512;-71
2023/08/16 10:38:37;;;;;;;7.43;6.73;;;30.10;99.90;;;;;;5025702;28;20861;-71
2023/08/16 10:41:12;;;;;;;6.63;5.97;;;30.30;99.90;;;;;;5020712;28;20934;-72
2023/08/16 10:43:44;;;;;;;8.00;6.13;;;30.50;99.90;;;;;;5012762;28;20422;-72
2023/08/16 10:46:09;;;;;;;6.93;6.20;;;30.70;99.90;;;;;;5013169;28;20391;-71
2023/08/16 10:48:36;;;;;;;7.40;6.67;;;30.90;99.90;;;;;;5024596;28;20420;-71
2023/08/16 10:51:06;;;;;;;7.23;6.37;;;30.70;99.90;;;;;;5032451;28;20202;-72
2023/08/16 10:53:34;;;;;;;6.67;6.07;;;30.60;99.90;;;;;;5032859;28;20440;-72
2023/08/16 10:56:05;;;;;;;7.07;6.40;;;30.50;99.90;;;;;;5032348;28;20458;-72
2023/08/16 10:58:30;;;;;;;7.23;6.27;;;30.90;99.90;;;;;;5021003;28;20404;-71
2023/08/16 11:00:57;;;;;;;7.10;6.50;;;32.20;99.90;;;;;;5016106;28;20555;-72
2023/08/16 11:03:37;;;;;;;6.90;6.30;;;33.30;99.90;;;;;;5016818;28;20202;-72
2023/08/16 11:06:10;;;;;;;6.03;5.43;;;34.80;99.90;;;;;;5016886;28;20457;-72
2023/08/16 11:08:39;;;;;;;6.67;6.07;;;36.20;97.20;;;;;;5028352;28;20410;-72
2023/08/16 11:11:05;;;;;;;6.87;5.40;;;35.80;95.50;;;;;;5023982;28;20561;-71
2023/08/16 11:13:30;;;;;;;6.23;5.57;;;36.40;94.80;;;;;;5015191;28;20445;-72
2023/08/16 11:15:56;;;;;;;5.97;5.47;;;35.90;95.80;;;;;;5016311;28;20252;-72
2023/08/16 11:18:30;;;;;;;8.60;6.07;;;34.90;96.00;;;;;;5026345;28;20167;-73
2023/08/16 11:20:59;;;;;;;7.43;5.70;;;36.30;95.00;;;;;;5019221;28;20485;-72
2023/08/16 11:23:32;;;;;;;7.53;5.70;;;36.20;94.10;;;;;;5016590;28;20422;-72
2023/08/16 11:26:03;;;;;;;10.47;6.43;;;35.90;94.20;;;;;;5016499;28;20403;-72
2023/08/16 11:28:30;;;;;;;6.07;5.57;;;34.90;95.30;;;;;;5026409;28;20425;-72
2023/08/16 11:31:03;;;;;;;8.60;6.10;;;34.50;96.00;;;;;;5035918;28;20503;-72
2023/08/16 11:33:32;;;;;;;6.60;5.90;;;35.00;95.80;;;;;;5035960;28;20435;-71
2023/08/16 11:36:02;;;;;;;8.30;6.40;;;36.40;93.30;;;;;;5032798;28;20812;-72
2023/08/16 11:38:28;;;;;;;5.27;4.60;;;36.60;92.20;;;;;;5025029;28;20391;-72
2023/08/16 11:40:57;;;;;;;6.50;5.90;;;36.10;94.30;;;;;;5016014;28;20956;-72
2023/08/16 11:43:34;;;;;;;5.40;4.90;;;36.50;92.30;;;;;;5015290;28;20237;-72
2023/08/16 11:46:01;;;;;;;5.50;4.80;;;38.00;90.70;;;;;;5016197;28;20418;-71
2023/08/16 11:48:29;;;;;;;6.00;5.40;;;38.40;89.30;;;;;;5025999;28;20444;-72
2023/08/16 11:50:57;;;;;;;6.13;5.40;;;38.20;86.40;;;;;;5035378;28;20455;-73
2023/08/16 11:53:31;;;;;;;6.60;5.50;;;38.70;85.80;;;;;;5035704;28;20418;-72
2023/08/16 11:56:00;;;;;;;5.20;4.67;;;37.80;86.90;;;;;;5035457;28;20444;-74
2023/08/16 11:58:26;;;;;;;5.90;5.00;;;37.50;86.00;;;;;;5025178;28;21026;-73
2023/08/16 12:00:52;;;;;;;5.37;4.87;;;37.70;85.10;;;;;;5015627;28;20423;-70
2023/08/16 12:03:18;;;;;;;6.53;4.77;;;38.80;82.70;;;;;;5015612;28;20412;-72
2023/08/16 12:05:49;;;;;;;5.77;5.27;;;37.30;84.90;;;;;;5015087;28;20442;-72
2023/08/16 12:08:20;;;;;;;5.53;4.70;;;36.70;86.40;;;;;;5024035;28;20864;-73
2023/08/16 12:10:54;;;;;;;5.77;5.27;;;36.30;86.90;;;;;;5034169;28;20920;-71
2023/08/16 12:13:20;;;;;;;6.03;4.37;;;36.50;85.20;;;;;;5021218;28;20449;-72
2023/08/16 12:15:46;;;;;;;6.77;5.10;;;37.80;84.40;;;;;;5015406;28;20893;-72
2023/08/16 12:18:14;;;;;;;6.23;4.53;;;37.80;83.40;;;;;;5022907;28;20921;-72
2023/08/16 12:20:40;;;;;;;6.23;4.90;;;37.60;83.40;;;;;;5034904;28;21027;-72
2023/08/16 12:23:07;;;;;;;4.70;4.30;;;38.30;81.30;;;;;;5035570;28;20422;-72
2023/08/16 12:25:33;;;;;;;5.47;4.90;;;39.40;78.80;;;;;;5035053;28;20438;-71
2023/08/16 12:27:59;;;;;;;7.70;5.37;;;39.50;77.60;;;;;;5028521;28;20461;-72
2023/08/16 12:30:25;;;;;;;7.83;5.03;;;40.40;75.70;;;;;;5015074;28;20406;-73
2023/08/16 12:32:51;;;;;;;5.60;4.73;;;41.00;72.50;;;;;;5015159;28;20180;-72
2023/08/16 12:35:16;;;;;;;4.70;4.30;;;40.60;72.00;;;;;;5015023;28;20499;-72
2023/08/16 12:37:42;;;;;;;5.90;4.87;;;39.10;75.50;;;;;;5018738;28;20167;-72
2023/08/16 12:40:09;;;;;;;6.73;4.10;;;39.60;73.80;;;;;;5035067;28;20167;-73
2023/08/16 12:42:35;;;;;;;4.13;3.83;;;40.40;73.60;;;;;;5028292;28;20194;-72
2023/08/16 12:45:00;;;;;;;10.50;4.73;;;41.00;71.00;;;;;;5014914;28;20403;-73